Time;durP1;ratioP1;P1;durP2;ratioP2;P2;SDS_P1;SDS_P2;PMS_P1;PMS_P2;Temp;Humidity;BMP_temperature;BMP_pressure;BME280_temperature;BME280_humidity;BME280_pressure;Samples;Min_cycle;Max_cycle;Signal;HPM_P1;HPM_P2
2022/05/20 00:01:49;;;;;;;;;;;;;;;15.51;68.48;102082.78;5091606;28;19941;-68
2022/05/20 00:04:14;;;;;;;;;;;;;;;15.45;68.79;102078.66;5092789;28;20451;-68
2022/05/20 00:06:40;;;;;;;;;;;;;;;15.42;68.37;102084.22;5091270;28;19955;-68
2022/05/20 00:09:06;;;;;;;;;;;;;;;15.40;68.61;102086.97;5093044;28;19958;-68
2022/05/20 00:11:31;;;;;;;;;;;;;;;15.40;68.62;102083.44;5099395;28;20102;-68
2022/05/20 00:13:57;;;;;;;;;;;;;;;15.39;68.51;102079.06;5091675;28;19916;-68
2022/05/20 00:16:23;;;;;;;;;;;;;;;15.38;68.60;102075.53;5095699;28;19916;-68
2022/05/20 00:18:48;;;;;;;;;;;;;;;15.35;68.55;102078.41;5077275;28;20006;-68
2022/05/20 00:21:13;;;;;;;;;;;;;;;15.30;69.07;102075.13;5108600;28;21332;-69
2022/05/20 00:23:41;;;;;;;;;;;;;;;15.24;68.59;102077.34;5093004;28;19943;-69
2022/05/20 00:26:09;;;;;;;;;;;;;;;15.23;68.81;102073.78;5094144;28;20294;-68
2022/05/20 00:28:35;;;;;;;;;;;;;;;15.20;68.57;102072.16;5092770;28;20293;-68
2022/05/20 00:31:04;;;;;;;;;;;;;;;15.19;68.51;102065.09;5096629;28;20006;-68
2022/05/20 00:33:30;;;;;;;;;;;;;;;15.17;68.61;102069.66;5093790;28;19912;-68
2022/05/20 00:35:57;;;;;;;;;;;;;;;15.10;68.89;102060.31;5094681;28;19920;-68
2022/05/20 00:38:23;;;;;;;;;;;;;;;15.05;68.73;102062.41;5092231;28;20640;-69
2022/05/20 00:40:53;;;;;;;;;;;;;;;15.03;69.04;102064.34;5094496;28;19927;-68
2022/05/20 00:43:29;;;;;;;;;;;;;;;15.02;68.81;102064.41;5092143;28;19939;-69
2022/05/20 00:45:56;;;;;;;;;;;;;;;15.01;68.74;102063.56;5094445;28;20355;-68
2022/05/20 00:48:22;;;;;;;;;;;;;;;15.01;68.86;102060.03;5097124;28;19915;-68
2022/05/20 00:50:54;;;;;;;;;;;;;;;14.98;68.75;102053.91;5094678;28;19919;-68
2022/05/20 00:53:23;;;;;;;;;;;;;;;14.97;69.06;102057.53;5092550;28;19915;-68
2022/05/20 00:55:49;;;;;;;;;;;;;;;14.93;69.03;102057.81;5093797;28;20354;-68
2022/05/20 00:58:19;;;;;;;;;;;;;;;14.89;69.15;102058.97;5093461;28;19912;-68
2022/05/20 01:00:50;;;;;;;;;;;;;;;14.88;68.80;102052.75;5090999;28;20393;-69
2022/05/20 01:03:18;;;;;;;;;;;;;;;14.87;68.79;102060.88;5092755;28;19996;-68
2022/05/20 01:05:46;;;;;;;;;;;;;;;14.85;68.81;102060.09;5092376;28;19916;-68
2022/05/20 01:08:13;;;;;;;;;;;;;;;14.84;68.99;102058.38;5091759;28;19943;-68
2022/05/20 01:10:38;;;;;;;;;;;;;;;14.83;69.02;102062.03;5096363;28;19911;-68
2022/05/20 01:13:04;;;;;;;;;;;;;;;14.80;68.74;102064.91;5094123;28;19938;-68
2022/05/20 01:15:29;;;;;;;;;;;;;;;14.75;69.10;102071.38;5095431;28;20665;-68
2022/05/20 01:17:56;;;;;;;;;;;;;;;14.76;68.67;102065.09;5098804;28;20350;-68
2022/05/20 01:20:26;;;;;;;;;;;;;;;14.75;68.90;102071.38;5098090;28;20359;-68
2022/05/20 01:22:54;;;;;;;;;;;;;;;14.74;68.93;102067.00;5093919;28;20308;-68
2022/05/20 01:25:23;;;;;;;;;;;;;;;14.70;69.03;102064.59;5091947;28;19993;-68
2022/05/20 01:27:49;;;;;;;;;;;;;;;14.67;69.14;102056.72;5095454;28;19922;-68
2022/05/20 01:30:16;;;;;;;;;;;;;;;14.64;69.21;102056.91;5096892;28;19916;-68
2022/05/20 01:32:41;;;;;;;;;;;;;;;14.63;69.04;102049.84;5092269;28;20370;-68
2022/05/20 01:35:11;;;;;;;;;;;;;;;14.60;69.36;102045.53;5090778;28;19920;-67
2022/05/20 01:37:36;;;;;;;;;;;;;;;14.61;69.37;102043.72;5091239;28;19928;-68
2022/05/20 01:40:02;;;;;;;;;;;;;;;14.59;69.43;102045.63;5099785;28;19923;-68
2022/05/20 01:42:36;;;;;;;;;;;;;;;14.57;69.33;102037.69;5090863;28;19923;-68
2022/05/20 01:45:07;;;;;;;;;;;;;;;14.55;69.35;102028.88;5093759;28;19912;-68
2022/05/20 01:47:41;;;;;;;;;;;;;;;14.53;69.19;102031.69;5092321;28;19912;-69
2022/05/20 01:50:07;;;;;;;;;;;;;;;14.52;69.32;102029.06;5092546;28;19951;-68
2022/05/20 01:52:39;;;;;;;;;;;;;;;14.51;69.32;102027.34;5092830;28;19959;-68
2022/05/20 01:55:08;;;;;;;;;;;;;;;14.50;69.42;102022.91;5092255;28;19945;-68
2022/05/20 01:57:39;;;;;;;;;;;;;;;14.46;69.60;102030.28;5094863;28;19911;-68
2022/05/20 02:00:10;;;;;;;;;;;;;;;14.42;69.57;102038.59;5089796;28;19923;-68
2022/05/20 02:02:42;;;;;;;;;;;;;;;14.40;69.64;102032.47;5090395;28;19919;-68
2022/05/20 02:05:17;;;;;;;;;;;;;;;14.38;69.62;102019.16;5089590;28;19920;-68
2022/05/20 02:07:45;;;;;;;;;;;;;;;14.36;69.67;102020.25;5094002;28;19957;-68
2022/05/20 02:10:19;;;;;;;;;;;;;;;14.32;69.51;102023.09;5089996;28;20010;-68
2022/05/20 02:12:46;;;;;;;;;;;;;;;14.32;69.67;102024.88;5089721;28;19912;-68
2022/05/20 02:15:32;;;;;;;;;;;;;;;14.28;69.63;102023.34;5096104;28;19915;-68
2022/05/20 02:18:00;;;;;;;;;;;;;;;14.24;69.74;102019.16;5092455;28;19965;-68
2022/05/20 02:20:25;;;;;;;;;;;;;;;14.20;69.80;102015.78;5091164;28;19916;-68
2022/05/20 02:22:53;;;;;;;;;;;;;;;14.17;70.11;102018.63;5107764;28;20285;-68
2022/05/20 02:25:21;;;;;;;;;;;;;;;14.15;70.13;102022.34;5101162;28;19916;-68
2022/05/20 02:27:54;;;;;;;;;;;;;;;14.13;70.22;102022.47;5089382;28;20367;-68
2022/05/20 02:30:24;;;;;;;;;;;;;;;14.13;69.97;102014.44;5091138;28;19916;-68
2022/05/20 02:32:57;;;;;;;;;;;;;;;14.11;70.07;102013.66;5092398;28;19935;-68
2022/05/20 02:35:22;;;;;;;;;;;;;;;14.08;70.35;102017.38;5090011;28;19912;-69
2022/05/20 02:37:48;;;;;;;;;;;;;;;14.07;70.06;102021.00;5093145;28;19970;-68
2022/05/20 02:40:14;;;;;;;;;;;;;;;14.05;70.09;102027.41;5090279;28;19920;-68
2022/05/20 02:42:40;;;;;;;;;;;;;;;14.05;69.94;102024.72;5091064;28;19923;-68
2022/05/20 02:45:05;;;;;;;;;;;;;;;14.03;70.24;102015.91;5092062;28;19916;-68
2022/05/20 02:47:32;;;;;;;;;;;;;;;14.02;70.12;102016.88;5090643;28;20042;-68
2022/05/20 02:50:01;;;;;;;;;;;;;;;14.00;70.29;102013.41;5090760;28;19912;-68
2022/05/20 02:52:26;;;;;;;;;;;;;;;13.93;70.36;102012.94;5091147;28;19924;-68
2022/05/20 02:54:52;;;;;;;;;;;;;;;13.91;69.93;102009.47;5089523;28;20383;-68
2022/05/20 02:57:17;;;;;;;;;;;;;;;13.91;70.33;102014.81;5088797;28;20391;-68
2022/05/20 03:05:13;;;;;;;;;;;;;;;13.90;70.56;102007.75;5091546;28;19981;-68
2022/05/20 03:07:39;;;;;;;;;;;;;;;13.84;70.33;102000.94;5090704;28;19912;-68
2022/05/20 03:10:04;;;;;;;;;;;;;;;13.83;70.41;101999.25;5093911;28;19916;-68
2022/05/20 03:12:29;;;;;;;;;;;;;;;13.84;70.13;102000.94;5093179;28;19980;-68
2022/05/20 03:14:55;;;;;;;;;;;;;;;13.83;70.21;101999.25;5093965;28;19919;-68
2022/05/20 03:17:20;;;;;;;;;;;;;;;13.84;70.49;102005.44;5090541;28;20309;-68
2022/05/20 03:19:46;;;;;;;;;;;;;;;13.84;70.43;102010.78;5088960;28;20072;-68
2022/05/20 03:22:11;;;;;;;;;;;;;;;13.86;70.28;102009.75;5119701;27;20018;-68
2022/05/20 03:24:37;;;;;;;;;;;;;;;13.83;70.24;102007.25;5090903;28;20389;-68
2022/05/20 03:27:05;;;;;;;;;;;;;;;13.81;70.37;102002.94;5092586;28;19912;-68
2022/05/20 03:29:32;;;;;;;;;;;;;;;13.80;70.73;101996.75;5075430;28;19965;-68
2022/05/20 03:31:57;;;;;;;;;;;;;;;13.79;70.52;102003.03;5090268;28;19912;-68
2022/05/20 03:34:23;;;;;;;;;;;;;;;13.78;70.56;101995.97;5092599;28;19919;-67
2022/05/20 03:36:50;;;;;;;;;;;;;;;13.77;70.52;101994.25;5091259;28;19912;-68
2022/05/20 03:39:17;;;;;;;;;;;;;;;13.74;70.78;101983.72;5093814;28;19928;-68
2022/05/20 03:41:43;;;;;;;;;;;;;;;13.72;70.64;101996.31;5091817;28;19923;-68
2022/05/20 03:44:09;;;;;;;;;;;;;;;13.72;71.17;101998.13;5089786;28;19916;-68
2022/05/20 03:46:45;;;;;;;;;;;;;;;13.68;70.97;101992.13;5091222;28;20298;-68
2022/05/20 03:49:11;;;;;;;;;;;;;;;13.69;71.03;101980.47;5092675;28;19918;-68
2022/05/20 03:51:37;;;;;;;;;;;;;;;13.71;71.32;101975.03;5091209;28;19915;-68
2022/05/20 03:54:05;;;;;;;;;;;;;;;13.71;71.26;101975.03;5095704;28;19918;-68
2022/05/20 03:56:30;;;;;;;;;;;;;;;13.73;71.59;101973.13;5094952;28;19912;-68
2022/05/20 03:58:56;;;;;;;;;;;;;;;13.74;71.33;101981.06;5093161;28;20335;-69
2022/05/20 04:04:05;;;;;;;;;;;;;;;13.73;72.38;101951.72;5094402;28;19919;-68
2022/05/20 04:06:31;;;;;;;;;;;;;;;13.75;71.79;101957.84;5096042;28;19916;-68
2022/05/20 04:08:58;;;;;;;;;;;;;;;13.74;72.07;101958.81;5095979;28;19951;-69
2022/05/20 04:11:24;;;;;;;;;;;;;;;13.75;72.02;101960.53;5091949;28;19924;-68
2022/05/20 04:13:51;;;;;;;;;;;;;;;13.77;72.55;101956.81;5094755;28;19911;-68
2022/05/20 04:16:19;;;;;;;;;;;;;;;13.77;71.88;101948.78;5094510;28;19911;-68
2022/05/20 04:18:44;;;;;;;;;;;;;;;13.77;72.09;101951.47;5094068;28;20006;-68
2022/05/20 04:21:10;;;;;;;;;;;;;;;13.77;72.42;101954.16;5092452;28;20492;-68
2022/05/20 04:23:36;;;;;;;;;;;;;;;13.76;72.32;101948.88;5092444;28;19923;-68
2022/05/20 04:26:01;;;;;;;;;;;;;;;13.76;72.69;101947.06;5090294;28;19912;-68
2022/05/20 04:28:26;;;;;;;;;;;;;;;13.78;73.03;101953.19;5093692;28;19915;-68
2022/05/20 04:30:56;;;;;;;;;;;;;;;13.82;73.16;101957.41;5095186;28;19919;-68
2022/05/20 04:33:21;;;;;;;;;;;;;;;13.84;74.35;101954.63;5092898;28;20355;-68
2022/05/20 04:35:49;;;;;;;;;;;;;;;13.85;74.42;101948.31;5100794;28;19919;-68
2022/05/20 04:38:14;;;;;;;;;;;;;;;13.89;74.57;101943.69;5094621;28;19961;-68
2022/05/20 04:40:39;;;;;;;;;;;;;;;13.95;75.11;101957.53;5095319;28;19916;-68
2022/05/20 04:48:35;;;;;;;;;;;;;;;13.99;76.30;101953.72;5094389;28;20333;-68
2022/05/20 04:51:01;;;;;;;;;;;;;;;14.01;77.06;101964.34;5095863;28;19923;-68
2022/05/20 04:56:14;;;;;;;;;;;;;;;14.02;76.72;101971.41;5094403;28;19919;-68
2022/05/20 04:58:39;;;;;;;;;;;;;;;14.13;76.51;101974.31;5100886;28;19919;-68
2022/05/20 05:01:05;;;;;;;;;;;;;;;14.26;76.83;101977.09;5092095;28;19916;-68
2022/05/20 05:03:31;;;;;;;;;;;;;;;14.37;77.33;101974.63;5093157;28;20412;-68
2022/05/20 05:05:59;;;;;;;;;;;;;;;14.46;77.88;101971.38;5094196;28;19918;-68
2022/05/20 05:08:25;;;;;;;;;;;;;;;14.54;77.76;101973.63;5092043;28;20339;-68
2022/05/20 05:10:52;;;;;;;;;;;;;;;14.58;78.05;101967.13;5094388;28;19915;-68
2022/05/20 05:13:17;;;;;;;;;;;;;;;14.58;77.59;101968.94;5092091;28;20338;-68
2022/05/20 05:15:43;;;;;;;;;;;;;;;14.60;77.87;101967.03;5093298;28;19966;-68
2022/05/20 05:18:12;;;;;;;;;;;;;;;14.61;77.42;101974.97;5092508;28;19916;-68
2022/05/20 05:20:50;;;;;;;;;;;;;;;14.63;78.06;101977.56;5092133;28;19916;-68
2022/05/20 05:23:18;;;;;;;;;;;;;;;14.66;78.22;101966.66;5091693;28;19919;-68
2022/05/20 05:25:44;;;;;;;;;;;;;;;14.69;78.07;101969.16;5093701;28;19912;-68
2022/05/20 05:28:10;;;;;;;;;;;;;;;14.73;77.98;101981.38;5096506;28;19919;-69
2022/05/20 05:30:44;;;;;;;;;;;;;;;14.78;77.97;101971.25;5093249;28;19912;-69
2022/05/20 05:33:09;;;;;;;;;;;;;;;14.84;78.10;101970.00;5092902;28;19920;-68
2022/05/20 05:35:35;;;;;;;;;;;;;;;14.86;78.30;101958.22;5092848;28;19912;-68
2022/05/20 05:38:00;;;;;;;;;;;;;;;14.87;77.70;101951.06;5092645;28;20445;-69
2022/05/20 05:40:27;;;;;;;;;;;;;;;14.88;78.09;101940.25;5091183;28;19927;-68
2022/05/20 05:42:54;;;;;;;;;;;;;;;14.88;78.07;101934.91;5092546;28;19923;-68
2022/05/20 05:45:21;;;;;;;;;;;;;;;14.93;77.75;101946.16;5092786;28;19919;-68
2022/05/20 05:47:50;;;;;;;;;;;;;;;15.02;77.80;101941.16;5092765;28;19919;-68
2022/05/20 05:50:15;;;;;;;;;;;;;;;15.11;78.58;101949.47;5092450;28;19912;-68
2022/05/20 05:52:41;;;;;;;;;;;;;;;15.18;78.27;101941.91;5090535;28;19949;-68
2022/05/20 05:55:06;;;;;;;;;;;;;;;15.31;78.34;101933.94;5087300;28;19924;-68
2022/05/20 05:57:34;;;;;;;;;;;;;;;15.40;77.48;101936.84;5093807;28;19916;-68
2022/05/20 05:59:59;;;;;;;;;;;;;;;15.47;76.26;101953.41;5124673;27;19916;-68
2022/05/20 06:02:25;;;;;;;;;;;;;;;15.37;77.96;101920.97;5092485;28;20337;-68
2022/05/20 06:04:51;;;;;;;;;;;;;;;15.51;76.62;101940.66;5092521;28;19912;-68
2022/05/20 06:07:17;;;;;;;;;;;;;;;15.57;77.24;101934.88;5094507;28;19965;-68
2022/05/20 06:09:42;;;;;;;;;;;;;;;15.61;76.76;101936.38;5090435;28;19920;-68
2022/05/20 06:12:09;;;;;;;;;;;;;;;15.70;76.81;101937.63;5121605;27;19916;-68
2022/05/20 06:14:35;;;;;;;;;;;;;;;15.81;76.25;101946.66;5091523;28;19919;-68
2022/05/20 06:17:04;;;;;;;;;;;;;;;15.93;75.60;101936.94;5089269;28;19912;-68
2022/05/20 06:19:29;;;;;;;;;;;;;;;16.04;74.53;101933.53;5092843;28;19918;-68
2022/05/20 06:21:55;;;;;;;;;;;;;;;16.12;74.58;101928.50;5091854;28;19916;-68
2022/05/20 06:24:20;;;;;;;;;;;;;;;16.19;72.97;101934.28;5091075;28;19922;-68
2022/05/20 06:26:47;;;;;;;;;;;;;;;16.25;71.89;101933.84;5074029;28;19955;-68
2022/05/20 06:29:12;;;;;;;;;;;;;;;16.30;72.35;101929.88;5092209;28;19970;-68
2022/05/20 06:31:38;;;;;;;;;;;;;;;16.29;72.63;101935.34;5093220;28;20388;-68
2022/05/20 06:34:04;;;;;;;;;;;;;;;16.27;71.85;101931.94;5090941;28;19916;-69
2022/05/20 06:41:58;;;;;;;;;;;;;;;16.29;71.48;101903.13;5088547;28;19947;-68
2022/05/20 06:44:25;;;;;;;;;;;;;;;16.37;71.04;101903.47;5089642;28;20367;-68
2022/05/20 06:46:50;;;;;;;;;;;;;;;16.56;71.38;101905.72;5092203;28;19958;-68
2022/05/20 06:49:16;;;;;;;;;;;;;;;16.72;68.83;101900.09;5076018;28;19986;-68
2022/05/20 06:51:41;;;;;;;;;;;;;;;16.79;69.09;101896.88;5088262;28;19912;-69
2022/05/20 06:54:08;;;;;;;;;;;;;;;16.89;68.99;101904.28;5090626;28;19911;-68
2022/05/20 06:56:34;;;;;;;;;;;;;;;16.91;68.67;101902.31;5089530;28;19912;-69
2022/05/20 06:59:00;;;;;;;;;;;;;;;16.90;68.45;101901.47;5092905;28;20335;-69
2022/05/20 07:01:26;;;;;;;;;;;;;;;16.90;67.35;101895.22;5090827;28;19969;-69
2022/05/20 07:03:51;;;;;;;;;;;;;;;16.93;67.45;101893.19;5090952;28;19999;-69
2022/05/20 07:06:20;;;;;;;;;;;;;;;16.98;67.87;101893.69;5093254;28;19916;-69
2022/05/20 07:08:48;;;;;;;;;;;;;;;17.04;66.23;101884.34;5091197;28;19986;-69
2022/05/20 07:11:14;;;;;;;;;;;;;;;17.10;66.74;101888.41;5090469;28;20359;-68
2022/05/20 07:13:39;;;;;;;;;;;;;;;17.24;67.01;101881.03;5090027;28;19958;-69
2022/05/20 07:16:07;;;;;;;;;;;;;;;17.43;65.97;101874.25;5087827;28;20010;-68
2022/05/20 07:18:34;;;;;;;;;;;;;;;17.62;65.36;101868.34;5091200;28;19919;-69
2022/05/20 07:21:00;;;;;;;;;;;;;;;17.78;65.46;101866.22;5091941;28;19916;-68
2022/05/20 07:23:28;;;;;;;;;;;;;;;17.93;63.50;101867.69;5086843;28;19920;-69
2022/05/20 07:25:53;;;;;;;;;;;;;;;18.07;64.01;101871.16;5090296;28;19908;-68
2022/05/20 07:28:18;;;;;;;;;;;;;;;18.14;63.25;101865.16;5097285;28;19919;-69
2022/05/20 07:30:44;;;;;;;;;;;;;;;18.27;63.56;101858.81;5091923;28;19939;-69
2022/05/20 07:33:11;;;;;;;;;;;;;;;18.41;63.46;101858.56;5113592;27;19916;-69
2022/05/20 07:35:38;;;;;;;;;;;;;;;18.53;62.99;101859.41;5095015;28;19912;-69
2022/05/20 07:38:06;;;;;;;;;;;;;;;18.66;62.13;101860.16;5094026;28;20003;-68
2022/05/20 07:40:32;;;;;;;;;;;;;;;18.75;61.71;101863.97;5095146;28;19915;-68
2022/05/20 07:42:58;;;;;;;;;;;;;;;18.76;61.60;101861.13;5095946;28;19941;-69
2022/05/20 07:45:23;;;;;;;;;;;;;;;18.73;60.35;101849.72;5077852;28;19921;-68
2022/05/20 07:47:49;;;;;;;;;;;;;;;18.74;60.64;101838.84;5077014;28;20441;-69
2022/05/20 07:50:14;;;;;;;;;;;;;;;18.82;60.93;101831.00;5093169;28;20412;-69
2022/05/20 07:55:27;;;;;;;;;;;;;;;19.14;59.38;101826.59;5095302;28;19942;-68
2022/05/20 07:57:53;;;;;;;;;;;;;;;19.25;59.33;101830.09;5094154;28;20351;-69
2022/05/20 08:00:19;;;;;;;;;;;;;;;19.38;58.45;101835.31;5095070;28;19945;-69
2022/05/20 08:02:44;;;;;;;;;;;;;;;19.42;58.53;101822.44;5095069;28;19912;-68
2022/05/20 08:05:10;;;;;;;;;;;;;;;19.48;57.80;101811.13;5093671;28;19928;-68
2022/05/20 08:07:41;;;;;;;;;;;;;;;19.54;57.19;101812.44;5094774;28;20269;-69
2022/05/20 08:10:27;;;;;;;;;;;;;;;19.66;58.09;101806.88;5090953;28;19912;-67
2022/05/20 08:12:52;;;;;;;;;;;;;;;19.82;56.75;101811.78;5092525;28;20369;-67
2022/05/20 08:15:17;;;;;;;;;;;;;;;19.92;56.29;101817.25;5092435;28;19916;-67
2022/05/20 08:17:43;;;;;;;;;;;;;;;20.03;55.40;101813.59;5093435;28;19919;-67
2022/05/20 08:20:09;;;;;;;;;;;;;;;20.08;53.52;101814.91;5076417;28;20378;-67
2022/05/20 08:22:35;;;;;;;;;;;;;;;20.07;54.92;101805.09;5096410;28;19922;-67
2022/05/20 08:25:00;;;;;;;;;;;;;;;20.17;54.98;101803.28;5094206;28;19919;-67
2022/05/20 08:27:29;;;;;;;;;;;;;;;20.31;54.31;101806.63;5093551;28;19957;-67
2022/05/20 08:29:55;;;;;;;;;;;;;;;20.30;53.83;101802.22;5093438;28;19919;-67
2022/05/20 08:32:22;;;;;;;;;;;;;;;20.28;53.85;101793.38;5095810;28;19916;-68
2022/05/20 08:34:50;;;;;;;;;;;;;;;20.24;53.94;101787.41;5091251;28;20298;-67
2022/05/20 08:37:16;;;;;;;;;;;;;;;20.17;54.25;101792.47;5089893;28;20130;-67
2022/05/20 08:39:41;;;;;;;;;;;;;;;20.13;55.17;101780.25;5091631;28;19916;-67
2022/05/20 08:42:13;;;;;;;;;;;;;;;20.10;55.43;101764.31;5093483;28;19916;-67
2022/05/20 08:44:38;;;;;;;;;;;;;;;20.07;55.91;101756.47;5093587;28;20002;-67
2022/05/20 08:47:13;;;;;;;;;;;;;;;20.10;56.75;101748.09;5094192;28;20007;-67
2022/05/20 08:49:39;;;;;;;;;;;;;;;20.17;56.06;101735.75;5094889;28;20259;-67
2022/05/20 08:52:07;;;;;;;;;;;;;;;20.31;54.99;101741.78;5094595;28;19933;-67
2022/05/20 08:54:33;;;;;;;;;;;;;;;20.36;54.98;101736.81;5092070;28;19916;-67
2022/05/20 08:57:09;;;;;;;;;;;;;;;20.38;54.87;101732.97;5093748;28;19911;-67
2022/05/20 08:59:38;;;;;;;;;;;;;;;20.48;55.10;101735.69;5094295;28;20005;-67
2022/05/20 09:02:03;;;;;;;;;;;;;;;20.61;55.47;101747.13;5106986;28;20268;-67
2022/05/20 09:04:28;;;;;;;;;;;;;;;20.55;55.19;101744.97;5112890;28;19911;-67
2022/05/20 09:07:04;;;;;;;;;;;;;;;20.49;55.01;101742.81;5101125;28;19946;-67
2022/05/20 09:09:44;;;;;;;;;;;;;;;20.44;56.01;101728.84;5098775;27;19958;-67
2022/05/20 09:12:10;;;;;;;;;;;;;;;20.49;55.42;101726.59;5092623;28;20006;-67
2022/05/20 09:17:22;;;;;;;;;;;;;;;20.57;56.13;101707.84;5097375;28;19934;-67
2022/05/20 09:19:56;;;;;;;;;;;;;;;20.87;55.53;101706.00;5093240;28;19912;-67
2022/05/20 09:22:29;;;;;;;;;;;;;;;21.07;54.56;101696.03;5092152;28;20018;-67
2022/05/20 09:24:55;;;;;;;;;;;;;;;21.24;54.56;101691.75;5091293;28;19919;-67
2022/05/20 09:27:40;;;;;;;;;;;;;;;21.37;52.68;101694.16;5096369;28;19914;-67
2022/05/20 09:30:07;;;;;;;;;;;;;;;21.35;53.36;101672.59;5089441;28;19916;-67
2022/05/20 09:32:40;;;;;;;;;;;;;;;21.35;52.90;101666.34;5093105;28;20359;-67
2022/05/20 09:35:13;;;;;;;;;;;;;;;21.31;53.78;101658.50;5091550;28;19912;-67
2022/05/20 09:37:39;;;;;;;;;;;;;;;21.38;53.38;101663.38;5093214;28;20337;-69
2022/05/20 09:40:20;;;;;;;;;;;;;;;21.54;53.52;101652.78;5094294;28;19919;-70
2022/05/20 09:42:59;;;;;;;;;;;;;;;21.64;52.92;101656.28;5093394;28;19912;-70
2022/05/20 09:45:25;;;;;;;;;;;;;;;21.80;53.13;101643.97;5093061;28;20366;-70
2022/05/20 09:47:53;;;;;;;;;;;;;;;21.89;53.22;101638.50;5092654;28;19916;-70
2022/05/20 09:50:26;;;;;;;;;;;;;;;22.04;53.36;101624.44;5093014;28;19966;-70
2022/05/20 09:52:54;;;;;;;;;;;;;;;22.26;53.56;101615.88;5093159;28;20294;-70
2022/05/20 09:55:29;;;;;;;;;;;;;;;22.36;52.51;101618.53;5091531;28;19959;-70
2022/05/20 09:57:55;;;;;;;;;;;;;;;22.55;52.72;101612.94;5093567;28;19937;-70
2022/05/20 10:00:32;;;;;;;;;;;;;;;22.64;51.82;101598.44;5094293;28;19967;-70
2022/05/20 10:03:17;;;;;;;;;;;;;;;22.73;52.83;101583.06;5094662;28;20371;-70
2022/05/20 10:05:45;;;;;;;;;;;;;;;22.84;52.74;101568.41;5095945;28;19973;-70
2022/05/20 10:08:10;;;;;;;;;;;;;;;22.96;52.79;101569.03;5094503;28;19912;-70
2022/05/20 10:10:45;;;;;;;;;;;;;;;23.08;52.06;101562.31;5091505;28;20325;-70
2022/05/20 10:13:29;;;;;;;;;;;;;;;23.08;51.65;101551.47;5091222;28;19947;-70
2022/05/20 10:16:13;;;;;;;;;;;;;;;23.01;51.32;101551.25;5091517;28;19919;-70
2022/05/20 10:18:47;;;;;;;;;;;;;;;22.93;52.09;101545.75;5092354;28;20329;-70
2022/05/20 10:21:29;;;;;;;;;;;;;;;22.77;51.99;101535.66;5092259;28;19916;-70
2022/05/20 10:24:14;;;;;;;;;;;;;;;22.48;52.88;101522.41;5089572;28;19916;-70
2022/05/20 10:26:43;;;;;;;;;;;;;;;22.44;53.50;101521.88;5092452;28;20007;-69
2022/05/20 10:32:35;;;;;;;;;;;;;;;22.42;53.24;101518.47;5096094;28;19922;-70
2022/05/20 10:35:02;;;;;;;;;;;;;;;22.44;52.96;101508.31;5105288;28;19915;-70
2022/05/20 10:37:42;;;;;;;;;;;;;;;22.40;53.58;101496.06;5093412;28;19976;-70
2022/05/20 10:40:16;;;;;;;;;;;;;;;22.20;53.05;101487.28;5091689;28;19942;-70
2022/05/20 10:42:45;;;;;;;;;;;;;;;22.04;53.93;101484.41;5093338;28;20024;-70
2022/05/20 10:48:35;;;;;;;;;;;;;;;21.93;53.80;101446.72;5092370;28;19924;-70
2022/05/20 10:51:07;;;;;;;;;;;;;;;21.90;53.89;101431.63;5088593;28;19920;-70
2022/05/20 10:53:32;;;;;;;;;;;;;;;21.88;54.52;101427.38;5086382;28;19911;-70
2022/05/20 10:56:24;;;;;;;;;;;;;;;21.83;54.21;101414.31;5086817;28;20383;-70
2022/05/20 10:58:52;;;;;;;;;;;;;;;21.87;54.28;101407.56;5087392;28;19924;-70
2022/05/20 11:01:36;;;;;;;;;;;;;;;21.87;53.87;101385.91;5093196;28;19998;-70
2022/05/20 11:04:14;;;;;;;;;;;;;;;21.92;53.90;101372.75;5093123;28;19911;-70
2022/05/20 11:07:02;;;;;;;;;;;;;;;21.96;54.04;101366.00;5088994;28;19912;-69
2022/05/20 11:09:33;;;;;;;;;;;;;;;22.11;54.60;101355.44;5089521;28;19916;-69
2022/05/20 11:11:59;;;;;;;;;;;;;;;22.22;53.88;101338.94;5091945;28;19912;-70
2022/05/20 11:14:25;;;;;;;;;;;;;;;22.28;53.75;101336.59;5092466;28;19941;-70
2022/05/20 11:17:00;;;;;;;;;;;;;;;22.21;53.74;101339.09;5092027;28;19911;-70
2022/05/20 11:19:44;;;;;;;;;;;;;;;22.20;54.72;101337.38;5091412;28;19912;-70
2022/05/20 11:22:28;;;;;;;;;;;;;;;22.28;54.54;101334.72;5091608;28;19942;-70
2022/05/20 11:24:53;;;;;;;;;;;;;;;22.26;54.98;101325.06;5091987;28;20294;-70
2022/05/20 11:27:38;;;;;;;;;;;;;;;22.20;55.44;101316.56;5092018;28;20022;-70
2022/05/20 11:30:30;;;;;;;;;;;;;;;22.13;55.79;101312.78;5091690;28;20002;-70
2022/05/20 11:33:25;;;;;;;;;;;;;;;22.09;56.30;101321.38;5073426;28;19915;-70
2022/05/20 11:36:07;;;;;;;;;;;;;;;21.99;56.33;101318.78;5083038;28;19919;-70
2022/05/20 11:38:41;;;;;;;;;;;;;;;21.83;56.88;101307.84;5089844;28;19927;-70
2022/05/20 11:41:16;;;;;;;;;;;;;;;21.65;57.57;101300.63;5091676;28;19977;-70
2022/05/20 11:43:55;;;;;;;;;;;;;;;21.63;58.06;101308.03;5089664;28;19916;-70
2022/05/20 11:46:27;;;;;;;;;;;;;;;21.58;57.77;101306.81;5107728;28;20263;-70
2022/05/20 11:49:05;;;;;;;;;;;;;;;21.55;58.68;101297.16;5110405;28;20002;-70
2022/05/20 11:51:59;;;;;;;;;;;;;;;21.48;59.32;101274.44;5111599;28;20380;-70
2022/05/20 11:54:34;;;;;;;;;;;;;;;21.44;59.32;101246.84;5081517;28;19920;-70
2022/05/20 11:57:07;;;;;;;;;;;;;;;21.40;60.00;101236.47;5089727;28;19935;-70
2022/05/20 11:59:38;;;;;;;;;;;;;;;21.38;60.10;101260.13;5089409;28;20401;-70
2022/05/20 12:02:06;;;;;;;;;;;;;;;21.36;61.48;101262.13;5091183;28;19916;-70
2022/05/20 12:04:33;;;;;;;;;;;;;;;21.23;62.40;101297.69;5090949;28;19912;-70
2022/05/20 12:07:25;;;;;;;;;;;;;;;21.15;62.56;101320.13;5091825;28;19996;-70
2022/05/20 12:09:52;;;;;;;;;;;;;;;21.06;63.25;101265.09;5086022;28;19920;-70
2022/05/20 12:12:20;;;;;;;;;;;;;;;21.08;64.87;101235.16;5091102;28;19928;-70
2022/05/20 12:15:04;;;;;;;;;;;;;;;20.97;66.13;101230.00;5089474;28;20006;-70
2022/05/20 12:17:37;;;;;;;;;;;;;;;20.75;68.70;101236.72;5091653;28;20382;-70
2022/05/20 12:26:07;;;;;;;;;;;;;;;20.45;66.93;101244.16;5073004;28;20342;-70
2022/05/20 12:28:37;;;;;;;;;;;;;;;20.46;70.69;101226.94;5095530;28;20032;-70
2022/05/20 12:31:09;;;;;;;;;;;;;;;20.42;74.39;101215.56;5093372;28;20290;-70
2022/05/20 12:33:54;;;;;;;;;;;;;;;20.35;69.15;101197.41;5094682;28;19934;-70
2022/05/20 12:36:28;;;;;;;;;;;;;;;20.35;69.86;101187.47;5094399;28;19969;-70
2022/05/20 12:39:09;;;;;;;;;;;;;;;20.36;70.64;101145.94;5095235;28;19920;-69
2022/05/20 12:41:38;;;;;;;;;;;;;;;20.40;71.30;101120.28;5094510;28;19923;-69
2022/05/20 12:44:16;;;;;;;;;;;;;;;20.46;72.04;101118.84;5094243;28;19923;-70
2022/05/20 12:47:02;;;;;;;;;;;;;;;20.49;74.39;101123.09;5095569;28;20231;-70
2022/05/20 12:49:32;;;;;;;;;;;;;;;20.52;74.99;101139.00;5093138;28;19912;-70
2022/05/20 12:52:13;;;;;;;;;;;;;;;20.75;72.93;101147.50;5095015;28;19912;-70
2022/05/20 12:54:40;;;;;;;;;;;;;;;21.10;73.54;101177.22;5092655;28;19911;-70
2022/05/20 12:57:07;;;;;;;;;;;;;;;21.03;74.46;101188.78;5093448;28;20333;-70
2022/05/20 12:59:33;;;;;;;;;;;;;;;20.96;72.88;101204.81;5094243;28;19912;-70
2022/05/20 13:02:00;;;;;;;;;;;;;;;20.96;73.62;101196.69;5094451;28;19969;-69
2022/05/20 13:04:27;;;;;;;;;;;;;;;20.98;72.93;101200.09;5096360;28;19943;-70
2022/05/20 13:06:53;;;;;;;;;;;;;;;21.00;76.11;101187.28;5092605;28;19912;-70
2022/05/20 13:09:26;;;;;;;;;;;;;;;20.96;75.85;101191.28;5095597;28;19927;-70
2022/05/20 13:11:51;;;;;;;;;;;;;;;20.93;74.35;101188.91;5093664;28;20390;-70
2022/05/20 13:14:19;;;;;;;;;;;;;;;20.84;77.02;101174.44;5092365;28;19912;-70
2022/05/20 13:16:46;;;;;;;;;;;;;;;20.83;76.63;101170.06;5093750;28;19912;-70
2022/05/20 13:19:12;;;;;;;;;;;;;;;20.81;75.17;101193.69;5094400;28;19920;-71
2022/05/20 13:21:58;;;;;;;;;;;;;;;20.83;74.99;101178.19;5093581;28;20331;-69
2022/05/20 13:24:28;;;;;;;;;;;;;;;20.92;75.43;101168.28;5093511;28;19912;-70
2022/05/20 13:27:13;;;;;;;;;;;;;;;21.00;78.73;101172.88;5113836;28;19919;-70